sensor_id;sensor_type;location;lat;lon;timestamp;P1;durP1;ratioP1;P2;durP2;ratioP2
13102;SDS011;52970;46.752;17.108;2023-11-19T00:01:22;6.57;;;5.70;;
13102;SDS011;52970;46.752;17.108;2023-11-19T00:03:47;6.73;;;5.57;;
13102;SDS011;52970;46.752;17.108;2023-11-19T00:06:13;6.30;;;5.70;;
13102;SDS011;52970;46.752;17.108;2023-11-19T00:08:38;6.70;;;6.00;;
13102;SDS011;52970;46.752;17.108;2023-11-19T00:11:04;8.10;;;6.73;;
13102;SDS011;52970;46.752;17.108;2023-11-19T00:13:29;7.67;;;6.10;;
13102;SDS011;52970;46.752;17.108;2023-11-19T00:15:54;6.43;;;5.83;;
13102;SDS011;52970;46.752;17.108;2023-11-19T00:18:19;6.67;;;5.97;;
13102;SDS011;52970;46.752;17.108;2023-11-19T00:20:45;6.37;;;5.77;;
13102;SDS011;52970;46.752;17.108;2023-11-19T00:23:11;5.87;;;5.17;;
13102;SDS011;52970;46.752;17.108;2023-11-19T00:25:36;5.70;;;5.20;;
13102;SDS011;52970;46.752;17.108;2023-11-19T00:28:03;5.53;;;5.03;;
13102;SDS011;52970;46.752;17.108;2023-11-19T00:30:28;7.73;;;5.87;;
13102;SDS011;52970;46.752;17.108;2023-11-19T00:32:56;5.73;;;5.20;;
13102;SDS011;52970;46.752;17.108;2023-11-19T00:35:21;6.17;;;5.47;;
13102;SDS011;52970;46.752;17.108;2023-11-19T00:37:46;6.10;;;5.50;;
13102;SDS011;52970;46.752;17.108;2023-11-19T00:40:13;6.90;;;6.20;;
13102;SDS011;52970;46.752;17.108;2023-11-19T00:42:40;5.57;;;5.07;;
13102;SDS011;52970;46.752;17.108;2023-11-19T00:45:06;6.03;;;5.27;;
13102;SDS011;52970;46.752;17.108;2023-11-19T00:47:34;6.20;;;5.30;;
13102;SDS011;52970;46.752;17.108;2023-11-19T00:50:00;7.17;;;5.63;;
13102;SDS011;52970;46.752;17.108;2023-11-19T00:52:25;7.03;;;5.90;;
13102;SDS011;52970;46.752;17.108;2023-11-19T00:54:50;6.20;;;5.60;;
13102;SDS011;52970;46.752;17.108;2023-11-19T00:57:16;6.13;;;5.40;;
13102;SDS011;52970;46.752;17.108;2023-11-19T00:59:42;6.17;;;5.57;;
13102;SDS011;52970;46.752;17.108;2023-11-19T01:02:07;6.17;;;5.50;;
13102;SDS011;52970;46.752;17.108;2023-11-19T01:04:35;7.63;;;5.70;;
13102;SDS011;52970;46.752;17.108;2023-11-19T01:07:04;5.43;;;4.93;;
13102;SDS011;52970;46.752;17.108;2023-11-19T01:09:29;5.93;;;5.07;;
13102;SDS011;52970;46.752;17.108;2023-11-19T01:11:54;6.23;;;5.60;;
13102;SDS011;52970;46.752;17.108;2023-11-19T01:14:20;10.83;;;5.80;;
13102;SDS011;52970;46.752;17.108;2023-11-19T01:16:45;5.90;;;5.33;;
13102;SDS011;52970;46.752;17.108;2023-11-19T01:19:10;5.80;;;5.30;;
13102;SDS011;52970;46.752;17.108;2023-11-19T01:21:36;6.53;;;5.67;;
13102;SDS011;52970;46.752;17.108;2023-11-19T01:24:01;6.80;;;5.80;;
13102;SDS011;52970;46.752;17.108;2023-11-19T01:26:28;6.03;;;5.50;;
13102;SDS011;52970;46.752;17.108;2023-11-19T01:28:53;11.20;;;6.20;;
13102;SDS011;52970;46.752;17.108;2023-11-19T01:31:18;7.57;;;5.20;;
13102;SDS011;52970;46.752;17.108;2023-11-19T01:33:43;7.50;;;6.10;;
13102;SDS011;52970;46.752;17.108;2023-11-19T01:36:09;6.23;;;5.37;;
13102;SDS011;52970;46.752;17.108;2023-11-19T01:38:34;6.10;;;5.50;;
13102;SDS011;52970;46.752;17.108;2023-11-19T01:41:00;7.63;;;5.50;;
13102;SDS011;52970;46.752;17.108;2023-11-19T01:43:31;6.63;;;5.47;;
13102;SDS011;52970;46.752;17.108;2023-11-19T01:45:58;7.37;;;6.30;;
13102;SDS011;52970;46.752;17.108;2023-11-19T01:48:23;6.80;;;5.63;;
13102;SDS011;52970;46.752;17.108;2023-11-19T01:50:48;6.23;;;5.63;;
13102;SDS011;52970;46.752;17.108;2023-11-19T01:53:14;6.53;;;5.50;;
13102;SDS011;52970;46.752;17.108;2023-11-19T01:55:40;6.70;;;6.00;;
13102;SDS011;52970;46.752;17.108;2023-11-19T01:58:05;6.60;;;5.90;;
13102;SDS011;52970;46.752;17.108;2023-11-19T02:00:32;7.27;;;5.83;;
13102;SDS011;52970;46.752;17.108;2023-11-19T02:02:58;6.20;;;5.47;;
13102;SDS011;52970;46.752;17.108;2023-11-19T02:05:23;6.30;;;5.70;;
13102;SDS011;52970;46.752;17.108;2023-11-19T02:07:49;5.83;;;5.23;;
13102;SDS011;52970;46.752;17.108;2023-11-19T02:10:16;6.83;;;5.90;;
13102;SDS011;52970;46.752;17.108;2023-11-19T02:12:44;9.27;;;6.37;;
13102;SDS011;52970;46.752;17.108;2023-11-19T02:15:09;6.37;;;5.77;;
13102;SDS011;52970;46.752;17.108;2023-11-19T02:17:35;6.77;;;6.00;;
13102;SDS011;52970;46.752;17.108;2023-11-19T02:20:02;7.33;;;5.33;;
13102;SDS011;52970;46.752;17.108;2023-11-19T02:22:28;7.23;;;6.03;;
13102;SDS011;52970;46.752;17.108;2023-11-19T02:24:59;6.27;;;5.67;;
13102;SDS011;52970;46.752;17.108;2023-11-19T02:27:38;6.67;;;5.53;;
13102;SDS011;52970;46.752;17.108;2023-11-19T02:30:04;6.07;;;5.50;;
13102;SDS011;52970;46.752;17.108;2023-11-19T02:32:31;6.77;;;5.90;;
13102;SDS011;52970;46.752;17.108;2023-11-19T02:34:56;6.03;;;5.43;;
13102;SDS011;52970;46.752;17.108;2023-11-19T02:37:21;6.73;;;6.13;;
13102;SDS011;52970;46.752;17.108;2023-11-19T02:39:46;7.40;;;5.80;;
13102;SDS011;52970;46.752;17.108;2023-11-19T02:42:12;6.53;;;5.83;;
13102;SDS011;52970;46.752;17.108;2023-11-19T02:44:38;6.13;;;5.53;;
13102;SDS011;52970;46.752;17.108;2023-11-19T02:47:05;6.67;;;5.53;;
13102;SDS011;52970;46.752;17.108;2023-11-19T02:49:30;6.83;;;5.43;;
13102;SDS011;52970;46.752;17.108;2023-11-19T02:51:55;8.23;;;6.03;;
13102;SDS011;52970;46.752;17.108;2023-11-19T02:54:21;7.33;;;5.93;;
13102;SDS011;52970;46.752;17.108;2023-11-19T02:56:52;6.73;;;6.03;;
13102;SDS011;52970;46.752;17.108;2023-11-19T02:59:20;6.67;;;6.07;;
13102;SDS011;52970;46.752;17.108;2023-11-19T03:01:52;7.27;;;6.07;;
13102;SDS011;52970;46.752;17.108;2023-11-19T03:04:18;7.10;;;6.40;;
13102;SDS011;52970;46.752;17.108;2023-11-19T03:06:45;7.93;;;6.70;;
13102;SDS011;52970;46.752;17.108;2023-11-19T03:09:11;7.17;;;6.47;;
13102;SDS011;52970;46.752;17.108;2023-11-19T03:11:37;7.17;;;6.47;;
13102;SDS011;52970;46.752;17.108;2023-11-19T03:14:02;7.97;;;6.50;;
13102;SDS011;52970;46.752;17.108;2023-11-19T03:16:30;6.43;;;5.63;;
13102;SDS011;52970;46.752;17.108;2023-11-19T03:18:55;6.77;;;6.07;;
13102;SDS011;52970;46.752;17.108;2023-11-19T03:21:30;6.80;;;6.07;;
13102;SDS011;52970;46.752;17.108;2023-11-19T03:23:59;7.33;;;6.60;;
13102;SDS011;52970;46.752;17.108;2023-11-19T03:26:25;8.43;;;6.13;;
13102;SDS011;52970;46.752;17.108;2023-11-19T03:28:51;6.00;;;5.40;;
13102;SDS011;52970;46.752;17.108;2023-11-19T03:31:16;6.37;;;5.83;;
13102;SDS011;52970;46.752;17.108;2023-11-19T03:33:42;8.23;;;6.50;;
13102;SDS011;52970;46.752;17.108;2023-11-19T03:36:07;7.97;;;5.97;;
13102;SDS011;52970;46.752;17.108;2023-11-19T03:38:34;6.37;;;5.63;;
13102;SDS011;52970;46.752;17.108;2023-11-19T03:40:59;6.87;;;6.10;;
13102;SDS011;52970;46.752;17.108;2023-11-19T03:43:24;6.77;;;6.17;;
13102;SDS011;52970;46.752;17.108;2023-11-19T03:45:50;5.93;;;5.33;;
13102;SDS011;52970;46.752;17.108;2023-11-19T03:48:15;6.13;;;5.53;;
13102;SDS011;52970;46.752;17.108;2023-11-19T03:50:41;7.43;;;6.37;;
13102;SDS011;52970;46.752;17.108;2023-11-19T03:53:06;8.23;;;6.70;;
13102;SDS011;52970;46.752;17.108;2023-11-19T03:55:32;8.07;;;6.90;;
13102;SDS011;52970;46.752;17.108;2023-11-19T03:57:57;9.17;;;6.10;;
13102;SDS011;52970;46.752;17.108;2023-11-19T04:00:23;6.70;;;6.07;;
13102;SDS011;52970;46.752;17.108;2023-11-19T04:02:48;7.20;;;6.10;;
13102;SDS011;52970;46.752;17.108;2023-11-19T04:05:14;8.13;;;6.70;;
13102;SDS011;52970;46.752;17.108;2023-11-19T04:07:39;7.93;;;6.57;;
13102;SDS011;52970;46.752;17.108;2023-11-19T04:10:04;7.77;;;6.20;;
13102;SDS011;52970;46.752;17.108;2023-11-19T04:12:30;8.60;;;6.30;;
13102;SDS011;52970;46.752;17.108;2023-11-19T04:14:55;7.97;;;6.80;;
13102;SDS011;52970;46.752;17.108;2023-11-19T04:17:21;6.80;;;6.10;;
13102;SDS011;52970;46.752;17.108;2023-11-19T04:19:48;6.07;;;5.47;;
13102;SDS011;52970;46.752;17.108;2023-11-19T04:22:13;7.10;;;5.87;;
13102;SDS011;52970;46.752;17.108;2023-11-19T04:24:38;6.03;;;5.43;;
13102;SDS011;52970;46.752;17.108;2023-11-19T04:27:04;6.03;;;5.23;;
13102;SDS011;52970;46.752;17.108;2023-11-19T04:29:31;8.00;;;5.87;;
13102;SDS011;52970;46.752;17.108;2023-11-19T04:31:56;6.83;;;6.13;;
13102;SDS011;52970;46.752;17.108;2023-11-19T04:34:21;6.77;;;5.97;;
13102;SDS011;52970;46.752;17.108;2023-11-19T04:36:47;6.27;;;5.67;;
13102;SDS011;52970;46.752;17.108;2023-11-19T04:39:12;6.70;;;6.00;;
13102;SDS011;52970;46.752;17.108;2023-11-19T04:41:46;6.17;;;5.33;;
13102;SDS011;52970;46.752;17.108;2023-11-19T04:44:12;6.17;;;5.60;;
13102;SDS011;52970;46.752;17.108;2023-11-19T04:46:38;5.83;;;5.33;;
13102;SDS011;52970;46.752;17.108;2023-11-19T04:49:03;6.47;;;5.73;;
13102;SDS011;52970;46.752;17.108;2023-11-19T04:51:29;6.37;;;5.67;;
13102;SDS011;52970;46.752;17.108;2023-11-19T04:53:55;6.40;;;5.20;;
13102;SDS011;52970;46.752;17.108;2023-11-19T04:56:21;7.47;;;5.90;;
13102;SDS011;52970;46.752;17.108;2023-11-19T04:58:48;6.17;;;5.57;;
13102;SDS011;52970;46.752;17.108;2023-11-19T05:01:13;13.10;;;6.60;;
13102;SDS011;52970;46.752;17.108;2023-11-19T05:03:40;6.20;;;5.60;;
13102;SDS011;52970;46.752;17.108;2023-11-19T05:06:06;5.83;;;5.33;;
13102;SDS011;52970;46.752;17.108;2023-11-19T05:08:31;6.07;;;5.30;;
13102;SDS011;52970;46.752;17.108;2023-11-19T05:10:57;6.40;;;5.80;;
13102;SDS011;52970;46.752;17.108;2023-11-19T05:13:22;7.10;;;6.13;;
13102;SDS011;52970;46.752;17.108;2023-11-19T05:15:47;6.17;;;5.57;;
13102;SDS011;52970;46.752;17.108;2023-11-19T05:18:13;5.63;;;5.10;;
13102;SDS011;52970;46.752;17.108;2023-11-19T05:20:38;7.73;;;6.23;;
13102;SDS011;52970;46.752;17.108;2023-11-19T05:23:03;7.07;;;5.77;;
13102;SDS011;52970;46.752;17.108;2023-11-19T05:25:29;6.37;;;5.63;;
13102;SDS011;52970;46.752;17.108;2023-11-19T05:27:55;6.17;;;5.57;;
13102;SDS011;52970;46.752;17.108;2023-11-19T05:30:20;6.00;;;5.40;;
13102;SDS011;52970;46.752;17.108;2023-11-19T05:32:45;6.00;;;5.40;;
13102;SDS011;52970;46.752;17.108;2023-11-19T05:35:11;5.67;;;5.17;;
13102;SDS011;52970;46.752;17.108;2023-11-19T05:37:36;6.50;;;5.90;;
13102;SDS011;52970;46.752;17.108;2023-11-19T05:40:01;5.97;;;5.37;;
13102;SDS011;52970;46.752;17.108;2023-11-19T05:42:29;6.87;;;6.17;;
13102;SDS011;52970;46.752;17.108;2023-11-19T05:44:54;6.70;;;5.90;;
13102;SDS011;52970;46.752;17.108;2023-11-19T05:47:19;6.47;;;5.60;;
13102;SDS011;52970;46.752;17.108;2023-11-19T05:49:44;7.13;;;6.00;;
13102;SDS011;52970;46.752;17.108;2023-11-19T05:52:10;6.30;;;5.70;;
13102;SDS011;52970;46.752;17.108;2023-11-19T05:54:37;7.57;;;6.73;;
13102;SDS011;52970;46.752;17.108;2023-11-19T05:57:05;6.03;;;5.43;;
13102;SDS011;52970;46.752;17.108;2023-11-19T05:59:31;7.27;;;5.87;;
13102;SDS011;52970;46.752;17.108;2023-11-19T06:01:58;7.37;;;6.30;;
13102;SDS011;52970;46.752;17.108;2023-11-19T06:04:23;8.53;;;6.07;;
13102;SDS011;52970;46.752;17.108;2023-11-19T06:06:48;7.23;;;6.13;;
13102;SDS011;52970;46.752;17.108;2023-11-19T06:09:13;6.10;;;5.50;;
13102;SDS011;52970;46.752;17.108;2023-11-19T06:11:39;6.57;;;5.97;;
13102;SDS011;52970;46.752;17.108;2023-11-19T06:14:04;6.13;;;5.53;;
13102;SDS011;52970;46.752;17.108;2023-11-19T06:16:30;7.87;;;7.03;;
13102;SDS011;52970;46.752;17.108;2023-11-19T06:18:56;7.03;;;6.37;;
13102;SDS011;52970;46.752;17.108;2023-11-19T06:21:23;8.40;;;7.60;;
13102;SDS011;52970;46.752;17.108;2023-11-19T06:23:48;7.40;;;6.70;;
13102;SDS011;52970;46.752;17.108;2023-11-19T06:26:14;8.13;;;7.27;;
13102;SDS011;52970;46.752;17.108;2023-11-19T06:28:39;11.57;;;9.30;;
13102;SDS011;52970;46.752;17.108;2023-11-19T06:31:04;9.63;;;8.53;;
13102;SDS011;52970;46.752;17.108;2023-11-19T06:33:29;8.90;;;8.00;;
13102;SDS011;52970;46.752;17.108;2023-11-19T06:35:54;10.13;;;8.27;;
13102;SDS011;52970;46.752;17.108;2023-11-19T06:38:20;13.53;;;10.03;;
13102;SDS011;52970;46.752;17.108;2023-11-19T06:40:45;9.30;;;7.90;;
13102;SDS011;52970;46.752;17.108;2023-11-19T06:43:10;10.27;;;8.37;;
13102;SDS011;52970;46.752;17.108;2023-11-19T06:45:36;10.93;;;9.10;;
13102;SDS011;52970;46.752;17.108;2023-11-19T06:48:04;14.93;;;11.70;;
13102;SDS011;52970;46.752;17.108;2023-11-19T06:50:30;11.30;;;9.57;;
13102;SDS011;52970;46.752;17.108;2023-11-19T06:52:55;15.60;;;11.40;;
13102;SDS011;52970;46.752;17.108;2023-11-19T06:55:20;15.10;;;11.03;;
13102;SDS011;52970;46.752;17.108;2023-11-19T06:57:45;12.63;;;10.73;;
13102;SDS011;52970;46.752;17.108;2023-11-19T07:00:11;13.90;;;11.43;;
13102;SDS011;52970;46.752;17.108;2023-11-19T07:02:36;13.20;;;11.77;;
13102;SDS011;52970;46.752;17.108;2023-11-19T07:05:02;11.57;;;10.37;;
13102;SDS011;52970;46.752;17.108;2023-11-19T07:07:30;10.77;;;9.40;;
13102;SDS011;52970;46.752;17.108;2023-11-19T07:09:55;12.33;;;10.73;;
13102;SDS011;52970;46.752;17.108;2023-11-19T07:12:20;13.80;;;10.33;;
13102;SDS011;52970;46.752;17.108;2023-11-19T07:14:45;15.37;;;10.60;;
13102;SDS011;52970;46.752;17.108;2023-11-19T07:17:11;10.80;;;9.70;;
13102;SDS011;52970;46.752;17.108;2023-11-19T07:19:36;11.57;;;9.87;;
13102;SDS011;52970;46.752;17.108;2023-11-19T07:22:03;15.30;;;11.30;;
13102;SDS011;52970;46.752;17.108;2023-11-19T07:24:28;12.67;;;10.43;;
13102;SDS011;52970;46.752;17.108;2023-11-19T07:26:53;14.13;;;12.73;;
13102;SDS011;52970;46.752;17.108;2023-11-19T07:29:19;14.43;;;11.80;;
13102;SDS011;52970;46.752;17.108;2023-11-19T07:31:44;12.00;;;9.97;;
13102;SDS011;52970;46.752;17.108;2023-11-19T07:34:10;12.27;;;10.30;;
13102;SDS011;52970;46.752;17.108;2023-11-19T07:36:36;10.17;;;9.03;;
13102;SDS011;52970;46.752;17.108;2023-11-19T07:39:01;9.13;;;8.00;;
13102;SDS011;52970;46.752;17.108;2023-11-19T07:41:27;9.77;;;7.90;;
13102;SDS011;52970;46.752;17.108;2023-11-19T07:43:52;10.10;;;8.50;;
13102;SDS011;52970;46.752;17.108;2023-11-19T07:46:18;9.77;;;8.77;;
13102;SDS011;52970;46.752;17.108;2023-11-19T07:48:45;9.87;;;8.87;;
13102;SDS011;52970;46.752;17.108;2023-11-19T07:51:12;10.37;;;8.23;;
13102;SDS011;52970;46.752;17.108;2023-11-19T07:53:37;18.67;;;12.53;;
13102;SDS011;52970;46.752;17.108;2023-11-19T07:56:03;18.33;;;10.60;;
13102;SDS011;52970;46.752;17.108;2023-11-19T07:58:29;13.17;;;9.47;;
13102;SDS011;52970;46.752;17.108;2023-11-19T08:00:54;13.83;;;10.43;;
13102;SDS011;52970;46.752;17.108;2023-11-19T08:03:19;18.13;;;12.53;;
13102;SDS011;52970;46.752;17.108;2023-11-19T08:05:44;16.43;;;11.70;;
13102;SDS011;52970;46.752;17.108;2023-11-19T08:08:11;15.40;;;11.53;;
13102;SDS011;52970;46.752;17.108;2023-11-19T08:10:36;13.47;;;10.50;;
13102;SDS011;52970;46.752;17.108;2023-11-19T08:13:01;12.10;;;9.63;;
13102;SDS011;52970;46.752;17.108;2023-11-19T08:15:27;10.70;;;9.10;;
13102;SDS011;52970;46.752;17.108;2023-11-19T08:17:52;13.13;;;9.20;;
13102;SDS011;52970;46.752;17.108;2023-11-19T08:20:18;10.73;;;9.37;;
13102;SDS011;52970;46.752;17.108;2023-11-19T08:22:43;11.40;;;9.33;;
13102;SDS011;52970;46.752;17.108;2023-11-19T08:25:09;11.87;;;10.13;;
13102;SDS011;52970;46.752;17.108;2023-11-19T08:27:34;12.37;;;9.00;;
13102;SDS011;52970;46.752;17.108;2023-11-19T08:29:59;13.13;;;9.10;;
13102;SDS011;52970;46.752;17.108;2023-11-19T08:32:25;11.30;;;9.10;;
13102;SDS011;52970;46.752;17.108;2023-11-19T08:34:50;12.20;;;8.73;;
13102;SDS011;52970;46.752;17.108;2023-11-19T08:37:15;10.80;;;8.70;;
13102;SDS011;52970;46.752;17.108;2023-11-19T08:39:43;12.63;;;10.10;;
13102;SDS011;52970;46.752;17.108;2023-11-19T08:42:08;10.43;;;8.80;;
13102;SDS011;52970;46.752;17.108;2023-11-19T08:44:33;13.70;;;9.87;;
13102;SDS011;52970;46.752;17.108;2023-11-19T08:46:58;11.67;;;10.20;;
13102;SDS011;52970;46.752;17.108;2023-11-19T08:49:23;11.53;;;9.60;;
13102;SDS011;52970;46.752;17.108;2023-11-19T08:51:49;13.30;;;9.33;;
13102;SDS011;52970;46.752;17.108;2023-11-19T08:54:14;9.87;;;8.70;;
13102;SDS011;52970;46.752;17.108;2023-11-19T08:56:39;10.60;;;8.77;;
13102;SDS011;52970;46.752;17.108;2023-11-19T08:59:05;9.63;;;8.63;;
13102;SDS011;52970;46.752;17.108;2023-11-19T09:01:30;11.27;;;8.93;;
13102;SDS011;52970;46.752;17.108;2023-11-19T09:03:55;9.17;;;8.17;;
13102;SDS011;52970;46.752;17.108;2023-11-19T09:06:20;10.07;;;7.57;;
13102;SDS011;52970;46.752;17.108;2023-11-19T09:08:46;9.70;;;7.63;;
13102;SDS011;52970;46.752;17.108;2023-11-19T09:11:11;9.73;;;7.40;;
13102;SDS011;52970;46.752;17.108;2023-11-19T09:13:36;8.90;;;7.83;;
13102;SDS011;52970;46.752;17.108;2023-11-19T09:16:02;10.20;;;8.37;;
13102;SDS011;52970;46.752;17.108;2023-11-19T09:18:30;9.67;;;8.40;;
13102;SDS011;52970;46.752;17.108;2023-11-19T09:20:57;9.57;;;7.97;;
13102;SDS011;52970;46.752;17.108;2023-11-19T09:23:22;10.83;;;8.37;;
13102;SDS011;52970;46.752;17.108;2023-11-19T09:25:49;8.80;;;7.80;;
13102;SDS011;52970;46.752;17.108;2023-11-19T09:28:14;9.97;;;8.03;;
13102;SDS011;52970;46.752;17.108;2023-11-19T09:30:40;8.57;;;7.57;;
13102;SDS011;52970;46.752;17.108;2023-11-19T09:33:05;10.23;;;8.47;;
13102;SDS011;52970;46.752;17.108;2023-11-19T09:35:30;17.20;;;11.77;;
13102;SDS011;52970;46.752;17.108;2023-11-19T09:37:55;11.73;;;9.03;;
13102;SDS011;52970;46.752;17.108;2023-11-19T09:40:21;9.13;;;7.10;;
13102;SDS011;52970;46.752;17.108;2023-11-19T09:42:46;10.20;;;7.17;;
13102;SDS011;52970;46.752;17.108;2023-11-19T09:45:13;8.50;;;6.53;;
13102;SDS011;52970;46.752;17.108;2023-11-19T09:47:39;12.00;;;6.40;;
13102;SDS011;52970;46.752;17.108;2023-11-19T09:50:04;10.30;;;7.70;;
13102;SDS011;52970;46.752;17.108;2023-11-19T09:52:30;7.97;;;6.83;;
13102;SDS011;52970;46.752;17.108;2023-11-19T09:54:55;8.67;;;6.27;;
13102;SDS011;52970;46.752;17.108;2023-11-19T09:57:20;9.90;;;7.50;;
13102;SDS011;52970;46.752;17.108;2023-11-19T09:59:46;8.43;;;7.37;;
13102;SDS011;52970;46.752;17.108;2023-11-19T10:02:12;12.77;;;7.70;;
13102;SDS011;52970;46.752;17.108;2023-11-19T10:04:37;10.23;;;6.97;;
13102;SDS011;52970;46.752;17.108;2023-11-19T10:07:03;7.67;;;6.20;;
13102;SDS011;52970;46.752;17.108;2023-11-19T10:09:29;6.83;;;6.10;;
13102;SDS011;52970;46.752;17.108;2023-11-19T10:11:54;7.27;;;6.50;;
13102;SDS011;52970;46.752;17.108;2023-11-19T10:14:20;6.67;;;5.80;;
13102;SDS011;52970;46.752;17.108;2023-11-19T10:16:47;6.70;;;6.00;;
13102;SDS011;52970;46.752;17.108;2023-11-19T10:19:18;7.43;;;6.37;;
13102;SDS011;52970;46.752;17.108;2023-11-19T10:21:44;8.47;;;6.57;;
13102;SDS011;52970;46.752;17.108;2023-11-19T10:24:11;8.90;;;7.10;;
13102;SDS011;52970;46.752;17.108;2023-11-19T10:26:36;8.00;;;7.13;;
13102;SDS011;52970;46.752;17.108;2023-11-19T10:29:02;8.83;;;6.90;;
13102;SDS011;52970;46.752;17.108;2023-11-19T10:31:27;8.00;;;6.93;;
13102;SDS011;52970;46.752;17.108;2023-11-19T10:33:52;7.83;;;7.03;;
13102;SDS011;52970;46.752;17.108;2023-11-19T10:36:18;10.30;;;7.93;;
13102;SDS011;52970;46.752;17.108;2023-11-19T10:38:53;10.57;;;8.40;;
13102;SDS011;52970;46.752;17.108;2023-11-19T10:41:31;9.80;;;7.43;;
13102;SDS011;52970;46.752;17.108;2023-11-19T10:43:57;9.50;;;7.73;;
13102;SDS011;52970;46.752;17.108;2023-11-19T10:46:22;9.20;;;7.30;;
13102;SDS011;52970;46.752;17.108;2023-11-19T10:48:48;9.67;;;8.10;;
13102;SDS011;52970;46.752;17.108;2023-11-19T10:51:13;8.37;;;7.23;;
13102;SDS011;52970;46.752;17.108;2023-11-19T10:53:46;9.80;;;8.27;;
13102;SDS011;52970;46.752;17.108;2023-11-19T10:56:13;8.70;;;7.23;;
13102;SDS011;52970;46.752;17.108;2023-11-19T10:58:42;9.67;;;7.37;;
13102;SDS011;52970;46.752;17.108;2023-11-19T11:01:11;11.07;;;6.87;;
13102;SDS011;52970;46.752;17.108;2023-11-19T11:03:39;9.70;;;7.63;;
13102;SDS011;52970;46.752;17.108;2023-11-19T11:06:05;10.43;;;8.70;;
13102;SDS011;52970;46.752;17.108;2023-11-19T11:08:30;13.27;;;9.63;;
13102;SDS011;52970;46.752;17.108;2023-11-19T11:10:56;9.60;;;8.13;;
13102;SDS011;52970;46.752;17.108;2023-11-19T11:13:23;8.97;;;6.93;;
13102;SDS011;52970;46.752;17.108;2023-11-19T11:15:55;15.52;;;11.20;;
13102;SDS011;52970;46.752;17.108;2023-11-19T11:18:21;13.73;;;9.70;;
13102;SDS011;52970;46.752;17.108;2023-11-19T11:20:48;12.90;;;9.47;;
13102;SDS011;52970;46.752;17.108;2023-11-19T11:28:28;10.10;;;8.63;;
13102;SDS011;52970;46.752;17.108;2023-11-19T11:31:06;13.43;;;10.43;;
13102;SDS011;52970;46.752;17.108;2023-11-19T11:36:13;9.57;;;7.88;;
13102;SDS011;52970;46.752;17.108;2023-11-19T11:38:43;8.18;;;7.13;;
13102;SDS011;52970;46.752;17.108;2023-11-19T11:41:19;8.48;;;7.20;;
13102;SDS011;52970;46.752;17.108;2023-11-19T11:46:53;9.00;;;7.32;;
13102;SDS011;52970;46.752;17.108;2023-11-19T11:48:55;8.20;;;7.35;;
13102;SDS011;52970;46.752;17.108;2023-11-19T11:51:39;10.43;;;6.68;;
13102;SDS011;52970;46.752;17.108;2023-11-19T11:54:07;8.30;;;6.85;;
13102;SDS011;52970;46.752;17.108;2023-11-19T11:56:33;8.02;;;6.95;;
13102;SDS011;52970;46.752;17.108;2023-11-19T11:58:59;8.63;;;7.43;;
13102;SDS011;52970;46.752;17.108;2023-11-19T12:01:25;7.80;;;7.05;;
13102;SDS011;52970;46.752;17.108;2023-11-19T12:03:55;8.52;;;7.60;;
13102;SDS011;52970;46.752;17.108;2023-11-19T12:06:21;9.15;;;6.68;;
13102;SDS011;52970;46.752;17.108;2023-11-19T12:08:46;10.48;;;7.03;;
13102;SDS011;52970;46.752;17.108;2023-11-19T12:11:11;9.10;;;7.97;;
13102;SDS011;52970;46.752;17.108;2023-11-19T12:13:47;9.10;;;7.90;;
13102;SDS011;52970;46.752;17.108;2023-11-19T12:16:13;8.52;;;7.35;;
13102;SDS011;52970;46.752;17.108;2023-11-19T12:18:39;7.40;;;6.63;;
13102;SDS011;52970;46.752;17.108;2023-11-19T12:21:04;6.93;;;6.22;;
13102;SDS011;52970;46.752;17.108;2023-11-19T12:23:31;7.97;;;7.18;;
13102;SDS011;52970;46.752;17.108;2023-11-19T12:25:56;7.20;;;6.50;;
13102;SDS011;52970;46.752;17.108;2023-11-19T12:28:22;7.70;;;6.90;;
13102;SDS011;52970;46.752;17.108;2023-11-19T12:30:49;7.40;;;6.70;;
13102;SDS011;52970;46.752;17.108;2023-11-19T12:33:14;7.05;;;6.25;;
13102;SDS011;52970;46.752;17.108;2023-11-19T12:38:05;7.32;;;6.40;;
13102;SDS011;52970;46.752;17.108;2023-11-19T12:40:30;10.20;;;7.70;;
13102;SDS011;52970;46.752;17.108;2023-11-19T12:42:55;10.20;;;7.93;;
13102;SDS011;52970;46.752;17.108;2023-11-19T12:45:21;9.70;;;8.35;;
13102;SDS011;52970;46.752;17.108;2023-11-19T12:47:48;11.10;;;7.72;;
13102;SDS011;52970;46.752;17.108;2023-11-19T12:50:16;8.15;;;7.15;;
13102;SDS011;52970;46.752;17.108;2023-11-19T12:52:57;7.35;;;6.65;;
13102;SDS011;52970;46.752;17.108;2023-11-19T12:55:26;8.45;;;6.93;;
13102;SDS011;52970;46.752;17.108;2023-11-19T12:57:52;7.30;;;6.43;;
13102;SDS011;52970;46.752;17.108;2023-11-19T13:00:18;8.90;;;6.85;;
13102;SDS011;52970;46.752;17.108;2023-11-19T13:02:53;8.93;;;6.57;;
13102;SDS011;52970;46.752;17.108;2023-11-19T13:05:26;8.85;;;7.72;;
13102;SDS011;52970;46.752;17.108;2023-11-19T13:07:57;8.90;;;7.03;;
13102;SDS011;52970;46.752;17.108;2023-11-19T13:10:23;8.25;;;6.93;;
13102;SDS011;52970;46.752;17.108;2023-11-19T13:13:05;8.05;;;7.22;;
13102;SDS011;52970;46.752;17.108;2023-11-19T13:15:30;8.80;;;7.80;;
13102;SDS011;52970;46.752;17.108;2023-11-19T13:17:56;9.68;;;8.30;;
13102;SDS011;52970;46.752;17.108;2023-11-19T13:20:21;8.88;;;7.70;;
13102;SDS011;52970;46.752;17.108;2023-11-19T13:22:56;8.52;;;7.60;;
13102;SDS011;52970;46.752;17.108;2023-11-19T13:25:22;11.38;;;7.60;;
13102;SDS011;52970;46.752;17.108;2023-11-19T13:27:47;8.43;;;6.88;;
13102;SDS011;52970;46.752;17.108;2023-11-19T13:30:12;9.25;;;7.40;;
13102;SDS011;52970;46.752;17.108;2023-11-19T13:32:38;8.43;;;7.53;;
13102;SDS011;52970;46.752;17.108;2023-11-19T13:35:04;10.95;;;7.47;;
13102;SDS011;52970;46.752;17.108;2023-11-19T13:37:29;10.02;;;7.32;;
13102;SDS011;52970;46.752;17.108;2023-11-19T13:39:55;9.40;;;6.97;;
13102;SDS011;52970;46.752;17.108;2023-11-19T13:42:20;9.40;;;7.80;;
13102;SDS011;52970;46.752;17.108;2023-11-19T13:44:46;10.85;;;7.70;;
13102;SDS011;52970;46.752;17.108;2023-11-19T13:47:11;8.73;;;6.82;;
13102;SDS011;52970;46.752;17.108;2023-11-19T13:49:38;9.07;;;8.10;;
13102;SDS011;52970;46.752;17.108;2023-11-19T13:52:03;8.90;;;7.65;;
13102;SDS011;52970;46.752;17.108;2023-11-19T13:54:29;9.10;;;7.55;;
13102;SDS011;52970;46.752;17.108;2023-11-19T13:56:57;7.65;;;6.88;;
13102;SDS011;52970;46.752;17.108;2023-11-19T13:59:26;7.72;;;6.65;;
13102;SDS011;52970;46.752;17.108;2023-11-19T14:01:52;7.57;;;6.78;;
13102;SDS011;52970;46.752;17.108;2023-11-19T14:04:17;8.75;;;7.55;;
13102;SDS011;52970;46.752;17.108;2023-11-19T14:06:44;10.23;;;8.77;;
13102;SDS011;52970;46.752;17.108;2023-11-19T14:09:09;8.80;;;7.40;;
13102;SDS011;52970;46.752;17.108;2023-11-19T14:11:35;10.70;;;8.73;;
13102;SDS011;52970;46.752;17.108;2023-11-19T14:14:00;8.60;;;7.30;;
13102;SDS011;52970;46.752;17.108;2023-11-19T14:16:28;8.70;;;7.03;;
13102;SDS011;52970;46.752;17.108;2023-11-19T14:18:54;7.90;;;7.07;;
13102;SDS011;52970;46.752;17.108;2023-11-19T14:21:19;8.15;;;7.30;;
13102;SDS011;52970;46.752;17.108;2023-11-19T14:23:45;11.52;;;9.73;;
13102;SDS011;52970;46.752;17.108;2023-11-19T14:26:10;9.50;;;8.10;;
13102;SDS011;52970;46.752;17.108;2023-11-19T14:28:35;9.35;;;8.02;;
13102;SDS011;52970;46.752;17.108;2023-11-19T14:31:00;10.75;;;8.20;;
13102;SDS011;52970;46.752;17.108;2023-11-19T14:33:26;10.32;;;8.27;;
13102;SDS011;52970;46.752;17.108;2023-11-19T14:35:51;9.05;;;7.57;;
13102;SDS011;52970;46.752;17.108;2023-11-19T14:38:17;8.68;;;7.70;;